Time;durP1;ratioP1;P1;durP2;ratioP2;P2;SDS_P1;SDS_P2;PMS_P1;PMS_P2;Temp;Humidity;BMP_temperature;BMP_pressure;BME280_temperature;BME280_humidity;BME280_pressure;Samples;Min_cycle;Max_cycle;Signal;HPM_P1;HPM_P2
2021/10/09 00:00:12;;;;;;;43.83;25.23;;;;;;;11.79;100.00;97178.03;4977799;28;20066;-57
2021/10/09 00:02:41;;;;;;;47.17;25.58;;;;;;;11.60;100.00;97181.47;4983487;28;20070;-56
2021/10/09 00:05:11;;;;;;;45.40;25.77;;;;;;;11.53;100.00;97180.31;4981207;28;20070;-58
2021/10/09 00:07:39;;;;;;;44.05;23.88;;;;;;;11.52;100.00;97180.44;4978669;28;20070;-59
2021/10/09 00:10:11;;;;;;;41.63;25.02;;;;;;;11.81;100.00;97173.47;4981453;28;20074;-57
2021/10/09 00:12:40;;;;;;;45.25;24.75;;;;;;;11.84;100.00;97175.03;4985270;28;20466;-59
2021/10/09 00:15:09;;;;;;;46.10;25.23;;;;;;;11.47;100.00;97170.28;4982759;28;20077;-58
2021/10/09 00:17:37;;;;;;;41.03;24.40;;;;;;;11.46;100.00;97165.97;4977598;28;20073;-55
2021/10/09 00:20:07;;;;;;;42.65;24.15;;;;;;;11.71;100.00;97166.47;4982810;28;20066;-57
2021/10/09 00:22:35;;;;;;;44.15;24.33;;;;;;;11.88;100.00;97164.06;4984338;28;20092;-59
2021/10/09 00:25:05;;;;;;;39.70;23.85;;;;;;;11.46;100.00;97173.03;4982250;28;20070;-57
2021/10/09 00:27:34;;;;;;;39.88;22.35;;;;;;;11.53;100.00;97174.22;4983777;28;20070;-58
2021/10/09 00:30:04;;;;;;;41.60;24.25;;;;;;;11.58;100.00;97164.06;4980828;28;20070;-58
2021/10/09 00:32:33;;;;;;;44.97;24.08;;;;;;;11.41;100.00;97171.63;4979918;28;20085;-57
2021/10/09 00:35:02;;;;;;;39.28;24.02;;;;;;;11.33;100.00;97171.47;4983533;28;20092;-56
2021/10/09 00:37:30;;;;;;;41.30;23.90;;;;;;;11.38;100.00;97168.44;4985067;28;20081;-60
2021/10/09 00:39:59;;;;;;;37.30;21.17;;;;;;;11.24;100.00;97163.50;4982458;28;20070;-56
2021/10/09 00:42:29;;;;;;;38.35;23.30;;;;;;;11.28;100.00;97173.66;4981862;28;20125;-59
2021/10/09 00:44:59;;;;;;;40.22;22.65;;;;;;;11.53;100.00;97159.19;4982911;28;20066;-60
2021/10/09 00:47:27;;;;;;;37.47;21.73;;;;;;;11.47;100.00;97162.34;4976593;28;20066;-59
2021/10/09 00:49:56;;;;;;;40.40;21.40;;;;;;;11.44;100.00;97159.16;4991436;28;20081;-57
2021/10/09 00:52:26;;;;;;;42.83;21.88;;;;;;;11.48;100.00;97153.47;4982396;28;20517;-58
2021/10/09 00:54:55;;;;;;;;;;;;;;;11.33;100.00;97155.63;4982059;28;20072;-59
2021/10/09 00:57:24;;;;;;;37.47;22.00;;;;;;;11.31;100.00;97152.28;4980945;28;19965;-56
2021/10/09 00:59:52;;;;;;;45.42;23.85;;;;;;;11.13;100.00;97161.78;4985245;28;20565;-58
2021/10/09 01:02:23;;;;;;;36.20;19.48;;;;;;;11.53;100.00;97158.38;4980057;28;20509;-55
2021/10/09 01:04:52;;;;;;;35.97;20.75;;;;;;;11.38;100.00;97149.94;4987926;28;20082;-58
2021/10/09 01:07:21;;;;;;;36.55;22.48;;;;;;;10.99;100.00;97162.94;4979702;28;20450;-56
2021/10/09 01:09:49;;;;;;;36.22;21.08;;;;;;;11.35;100.00;97153.69;4981359;28;20595;-58
2021/10/09 01:12:18;;;;;;;36.47;20.45;;;;;;;11.41;100.00;97153.16;4977524;28;20472;-59
2021/10/09 01:14:46;;;;;;;33.60;20.73;;;;;;;11.73;100.00;97154.78;4980662;28;20077;-59
2021/10/09 01:17:15;;;;;;;34.60;20.98;;;;;;;11.32;100.00;97156.59;4982707;28;20093;-57
2021/10/09 01:19:45;;;;;;;39.45;22.23;;;;;;;11.26;100.00;97158.94;4979116;28;20081;-58
2021/10/09 01:22:15;;;;;;;34.90;20.92;;;;;;;11.45;100.00;97148.44;4980459;28;20085;-58
2021/10/09 01:24:43;;;;;;;36.83;21.98;;;;;;;11.60;100.00;97155.03;4981840;28;20089;-52
2021/10/09 01:27:16;;;;;;;35.83;19.40;;;;;;;11.39;100.00;97147.19;4983085;28;20085;-58
2021/10/09 01:29:45;;;;;;;37.17;21.83;;;;;;;11.04;100.00;97152.81;4996814;28;20061;-56
2021/10/09 01:32:13;;;;;;;37.45;22.48;;;;;;;11.39;100.00;97157.75;4983672;28;20082;-60
2021/10/09 01:34:41;;;;;;;38.50;19.67;;;;;;;11.53;100.00;97155.72;4987621;28;20086;-57
2021/10/09 01:37:10;;;;;;;34.53;21.30;;;;;;;11.55;100.00;97153.75;4984369;28;20066;-59
2021/10/09 01:39:43;;;;;;;39.33;22.70;;;;;;;11.36;100.00;97151.91;5000614;28;20074;-56
2021/10/09 01:42:12;;;;;;;38.58;20.98;;;;;;;11.11;100.00;97153.13;4981309;28;20074;-58
2021/10/09 01:44:40;;;;;;;39.55;21.55;;;;;;;11.20;100.00;97152.38;4983307;28;20066;-58
2021/10/09 01:47:09;;;;;;;36.33;19.77;;;;;;;11.29;100.00;97148.94;4983444;28;20058;-57
2021/10/09 01:49:38;;;;;;;36.95;21.23;;;;;;;11.20;100.00;97152.38;4986080;28;20445;-58
2021/10/09 01:52:06;;;;;;;35.13;20.00;;;;;;;11.31;100.00;97154.09;4980378;28;20081;-59
2021/10/09 01:54:35;;;;;;;35.72;21.25;;;;;;;10.95;100.00;97148.34;4982878;28;20057;-59
2021/10/09 01:57:05;;;;;;;34.58;20.83;;;;;;;11.21;100.00;97153.19;4985350;28;20066;-57
2021/10/09 01:59:33;;;;;;;32.03;19.60;;;;;;;11.00;100.00;97150.59;4987584;28;20505;-58
2021/10/09 02:02:02;;;;;;;32.55;20.08;;;;;;;11.30;100.00;97150.59;4983916;28;20206;-58
2021/10/09 02:04:31;;;;;;;33.33;20.50;;;;;;;11.07;100.00;97146.47;4983919;28;20093;-58
2021/10/09 02:07:00;;;;;;;32.53;18.98;;;;;;;11.02;100.00;97146.03;4985373;28;20070;-58
2021/10/09 02:09:29;;;;;;;31.73;19.92;;;;;;;10.99;100.00;97141.84;4985291;28;20054;-59
2021/10/09 02:11:57;;;;;;;28.35;18.52;;;;;;;11.42;100.00;97146.06;4985782;28;20074;-60
2021/10/09 02:14:33;;;;;;;33.10;20.00;;;;;;;11.33;100.00;97142.44;4983928;28;20073;-57
2021/10/09 02:25:35;;;;;;;31.23;19.65;;;;;;;11.13;100.00;97148.56;4983529;28;20069;-58
2021/10/09 02:28:04;;;;;;;33.53;18.85;;;;;;;11.15;100.00;97144.84;4992794;28;20038;-58
2021/10/09 02:30:34;;;;;;;31.08;18.63;;;;;;;11.04;100.00;97150.19;4986539;28;20092;-55
2021/10/09 02:33:03;;;;;;;32.10;19.67;;;;;;;10.78;100.00;97144.50;4980710;28;20066;-58
2021/10/09 02:35:32;;;;;;;35.22;20.48;;;;;;;10.87;100.00;97141.09;4984915;28;20077;-59
2021/10/09 02:38:01;;;;;;;31.77;18.63;;;;;;;10.97;100.00;97142.94;4998140;28;20092;-58
2021/10/09 02:40:30;;;;;;;33.03;19.80;;;;;;;11.13;100.00;97144.13;4982732;28;20426;-60
2021/10/09 02:42:59;;;;;;;34.95;19.83;;;;;;;10.88;100.00;97147.19;4985749;28;20508;-59
2021/10/09 02:45:27;;;;;;;36.72;20.60;;;;;;;10.82;100.00;97137.16;4988255;28;20038;-54
2021/10/09 02:47:59;;;;;;;31.23;20.23;;;;;;;10.93;100.00;97145.81;4984801;28;20104;-56
2021/10/09 02:50:28;;;;;;;31.08;19.45;;;;;;;10.99;100.00;97141.84;4981306;28;20070;-52
2021/10/09 02:52:57;;;;;;;30.85;19.33;;;;;;;10.99;100.00;97143.66;4985283;28;20097;-56
2021/10/09 02:55:26;;;;;;;34.58;19.65;;;;;;;10.84;100.00;97137.84;4986579;28;22099;-57
2021/10/09 02:57:54;;;;;;;32.88;18.60;;;;;;;11.09;100.00;97133.97;4984400;28;20062;-58
2021/10/09 03:00:23;;;;;;;31.27;19.77;;;;;;;11.05;100.00;97138.69;4985423;28;20077;-54
2021/10/09 03:02:51;;;;;;;30.85;20.27;;;;;;;10.74;100.00;97136.97;4986765;28;20074;-57
2021/10/09 03:05:21;;;;;;;31.58;19.77;;;;;;;10.57;100.00;97152.41;4982229;28;20077;-56
2021/10/09 03:07:50;;;;;;;32.88;18.88;;;;;;;10.48;100.00;97141.78;4982289;28;20078;-57
2021/10/09 03:10:19;;;;;;;35.30;21.02;;;;;;;10.68;100.00;97138.31;4984247;28;20081;-58
2021/10/09 03:12:47;;;;;;;30.88;19.58;;;;;;;10.93;100.00;97137.91;4980275;28;20062;-52
2021/10/09 03:15:16;;;;;;;34.85;20.23;;;;;;;10.78;100.00;97133.09;4980444;28;20176;-56
2021/10/09 03:17:45;;;;;;;33.83;19.45;;;;;;;10.68;100.00;97135.66;4980981;28;20093;-60
2021/10/09 03:20:14;;;;;;;34.90;19.95;;;;;;;10.92;100.00;97133.59;4986002;28;20078;-61
2021/10/09 03:22:44;;;;;;;34.13;21.02;;;;;;;11.02;100.00;97146.03;4983853;28;20588;-60
2021/10/09 03:25:13;;;;;;;;;;;;;;;10.94;100.00;97138.72;4981184;28;20073;-61
2021/10/09 03:27:41;;;;;;;34.97;19.85;;;;;;;11.06;100.00;97139.50;4985020;28;19969;-61
2021/10/09 03:30:10;;;;;;;32.08;19.45;;;;;;;10.91;100.00;97136.38;4981740;28;20073;-60
2021/10/09 03:32:39;;;;;;;37.08;21.73;;;;;;;10.79;100.00;97138.25;4983347;28;20061;-56
2021/10/09 03:35:08;;;;;;;36.83;19.98;;;;;;;10.68;100.00;97144.41;4978397;28;20078;-61
2021/10/09 03:37:37;;;;;;;34.60;20.10;;;;;;;10.52;100.00;97146.66;4986137;28;20096;-61
2021/10/09 03:40:11;;;;;;;37.50;21.13;;;;;;;10.81;100.00;97154.78;4981761;28;20482;-61
2021/10/09 03:42:43;;;;;;;40.30;20.90;;;;;;;10.68;100.00;97141.78;4987131;28;20046;-60
2021/10/09 03:45:15;;;;;;;34.38;20.55;;;;;;;10.76;100.00;97148.22;4987295;28;20074;-58
2021/10/09 03:48:07;;;;;;;34.28;19.77;;;;;;;10.87;100.00;97138.44;4979741;28;20070;-61
2021/10/09 03:53:22;;;;;;;39.58;22.45;;;;;;;10.59;100.00;97153.09;4976926;28;20070;-59
2021/10/09 03:55:51;;;;;;;40.45;21.85;;;;;;;10.49;100.00;97154.81;4982353;28;20074;-61
2021/10/09 03:58:20;;;;;;;33.70;21.90;;;;;;;10.46;100.00;97155.09;4986434;28;20511;-61
2021/10/09 04:00:48;;;;;;;38.97;22.55;;;;;;;10.50;100.00;97148.59;4984344;28;20493;-60
2021/10/09 04:03:17;;;;;;;43.03;22.73;;;;;;;10.37;100.00;97153.22;4981705;28;20062;-61
2021/10/09 04:05:45;;;;;;;34.72;22.42;;;;;;;10.80;100.00;97152.25;4980596;28;20070;-61
2021/10/09 04:08:14;;;;;;;42.92;23.35;;;;;;;10.88;100.00;97155.94;4984937;28;20082;-60
2021/10/09 04:10:42;;;;;;;38.38;23.35;;;;;;;10.53;100.00;97158.91;4984472;28;20544;-61
2021/10/09 04:13:12;;;;;;;41.42;24.48;;;;;;;10.56;100.00;97153.34;4984117;28;20066;-61
2021/10/09 04:15:41;;;;;;;42.00;21.63;;;;;;;10.72;100.00;97152.09;4977360;28;20569;-61
2021/10/09 04:18:09;;;;;;;40.13;22.63;;;;;;;10.65;100.00;97157.03;4975118;28;20665;-60
2021/10/09 04:20:38;;;;;;;43.33;23.08;;;;;;;10.58;100.00;97154.06;4999083;28;20057;-60
2021/10/09 04:23:07;;;;;;;37.67;23.20;;;;;;;10.62;100.00;97158.13;4980312;28;20081;-60
2021/10/09 04:25:35;;;;;;;43.40;23.13;;;;;;;10.68;100.00;97162.06;4987108;28;20073;-62
2021/10/09 04:28:05;;;;;;;42.60;22.35;;;;;;;10.52;100.00;97156.38;4978164;28;20085;-62
2021/10/09 04:30:35;;;;;;;38.20;22.00;;;;;;;10.65;100.00;97147.31;4977200;28;20074;-61
2021/10/09 04:33:03;;;;;;;39.60;22.67;;;;;;;10.54;100.00;97159.72;4978961;28;20070;-61
2021/10/09 04:35:32;;;;;;;39.15;22.65;;;;;;;10.72;100.00;97154.72;4984276;28;20069;-61
2021/10/09 04:38:08;;;;;;;41.35;22.27;;;;;;;10.54;100.00;97157.09;4979997;28;20525;-62
2021/10/09 04:40:36;;;;;;;40.22;22.58;;;;;;;10.60;100.00;97157.41;4980333;28;20078;-55
2021/10/09 04:43:05;;;;;;;38.00;22.52;;;;;;;10.35;100.00;97165.66;4977892;28;20088;-61
2021/10/09 04:45:35;;;;;;;41.03;24.38;;;;;;;10.57;100.00;97160.31;4978021;28;20081;-59
2021/10/09 04:48:04;;;;;;;39.30;23.40;;;;;;;10.44;100.00;97157.00;4979257;28;20069;-59
2021/10/09 04:50:33;;;;;;;40.20;23.77;;;;;;;10.32;100.00;97153.56;4979660;28;20477;-59
2021/10/09 04:53:01;;;;;;;40.42;23.42;;;;;;;10.12;100.00;97164.91;4977940;28;20550;-59
2021/10/09 04:55:30;;;;;;;46.78;25.08;;;;;;;10.07;100.00;97167.88;4984156;28;20089;-59
2021/10/09 04:57:58;;;;;;;45.83;24.67;;;;;;;10.48;100.00;97162.88;4985890;28;20069;-60
2021/10/09 05:00:27;;;;;;;41.15;24.20;;;;;;;10.41;100.00;97160.72;4980851;28;20080;-59
2021/10/09 05:02:57;;;;;;;45.42;26.05;;;;;;;10.51;100.00;97165.25;4985702;28;20070;-60
2021/10/09 05:05:26;;;;;;;47.63;24.45;;;;;;;10.58;100.00;97174.34;4980157;28;20077;-59
2021/10/09 05:07:54;;;;;;;43.15;24.05;;;;;;;10.41;100.00;97173.06;4983115;28;20536;-60
2021/10/09 05:10:25;;;;;;;43.45;24.90;;;;;;;10.63;100.00;97174.78;4988220;28;20065;-58
2021/10/09 05:13:04;;;;;;;45.60;25.48;;;;;;;10.44;100.00;97178.09;4984628;28;20077;-60
2021/10/09 05:15:33;;;;;;;50.35;26.85;;;;;;;10.35;100.00;97176.22;4979011;28;20065;-61
2021/10/09 05:18:03;;;;;;;45.00;26.10;;;;;;;10.27;100.00;97176.84;4984265;28;20091;-59
2021/10/09 05:20:32;;;;;;;47.30;26.35;;;;;;;10.66;100.00;97179.78;4980718;28;20398;-58
2021/10/09 05:23:00;;;;;;;44.35;24.20;;;;;;;10.67;100.00;97182.31;4986357;28;20082;-60
2021/10/09 05:25:31;;;;;;;45.63;26.55;;;;;;;10.59;100.00;97182.09;4990058;28;20085;-57
2021/10/09 05:28:03;;;;;;;49.03;26.83;;;;;;;10.71;100.00;97175.00;4982043;28;20081;-60
2021/10/09 05:30:34;;;;;;;46.38;26.65;;;;;;;10.63;100.00;97178.28;4985526;28;20093;-59
2021/10/09 05:33:25;;;;;;;48.55;27.98;;;;;;;10.50;100.00;97182.03;4984899;28;20070;-61
2021/10/09 05:35:53;;;;;;;55.85;27.38;;;;;;;10.39;100.00;97183.75;4983964;28;20547;-59
2021/10/09 05:38:21;;;;;;;48.60;27.52;;;;;;;10.38;100.00;97187.34;4986409;28;20078;-57
2021/10/09 05:40:50;;;;;;;51.38;27.77;;;;;;;10.13;100.00;97177.09;4989629;28;20081;-59
2021/10/09 05:43:20;;;;;;;49.97;27.77;;;;;;;10.56;100.00;97185.00;4982057;28;20092;-59
2021/10/09 05:45:48;;;;;;;61.47;29.93;;;;;;;10.16;100.00;97190.03;4981694;28;20531;-60
2021/10/09 05:48:18;;;;;;;54.90;28.85;;;;;;;10.37;100.00;97185.69;4986812;28;20501;-59
2021/10/09 05:50:52;;;;;;;53.22;29.85;;;;;;;10.45;100.00;97185.88;4984009;28;20077;-59
2021/10/09 05:53:41;;;;;;;52.72;28.00;;;;;;;10.46;100.00;97189.38;4984944;28;20070;-60
2021/10/09 05:56:13;;;;;;;56.00;30.73;;;;;;;10.29;100.00;97190.75;4987073;28;20113;-59
2021/10/09 05:58:53;;;;;;;54.15;29.70;;;;;;;10.50;100.00;97189.97;4984682;28;20090;-58
2021/10/09 06:01:41;;;;;;;57.47;29.13;;;;;;;10.54;100.00;97194.84;4986516;28;20069;-59
2021/10/09 06:43:19;;;;;;;52.47;29.45;;;;;;;11.48;100.00;97227.41;4985378;28;20074;-59
2021/10/09 06:46:08;;;;;;;;;;;;;;;11.10;100.00;97231.50;4985303;28;20062;-59
2021/10/09 06:48:54;;;;;;;58.67;30.77;;;;;;;12.09;100.00;97229.22;4982139;28;19961;-59
2021/10/09 06:59:42;;;;;;;60.47;34.25;;;;;;;10.52;100.00;97246.88;4980592;28;20161;-60
2021/10/09 07:02:11;;;;;;;62.97;32.42;;;;;;;11.47;100.00;97246.03;4982838;28;20524;-57
2021/10/09 07:04:40;;;;;;;56.22;31.65;;;;;;;10.83;100.00;97253.09;4984089;28;20078;-59
2021/10/09 07:07:12;;;;;;;63.03;31.48;;;;;;;11.44;100.00;97244.50;4985025;28;20132;-60
2021/10/09 07:09:42;;;;;;;60.38;33.53;;;;;;;11.23;100.00;97241.88;4981389;28;20075;-58
2021/10/09 07:12:10;;;;;;;58.65;34.15;;;;;;;11.20;100.00;97259.78;4980274;28;20081;-60
2021/10/09 07:14:39;;;;;;;60.20;33.63;;;;;;;11.22;100.00;97260.47;4977270;28;20066;-57
2021/10/09 07:17:08;;;;;;;63.15;32.45;;;;;;;11.07;100.00;97257.31;4985920;28;20085;-58
2021/10/09 07:19:36;;;;;;;60.40;33.28;;;;;;;11.04;100.00;97254.94;4988996;28;20185;-59
2021/10/09 07:22:05;;;;;;;60.42;35.35;;;;;;;11.58;100.00;97260.00;4984193;28;20062;-59
2021/10/09 07:24:55;;;;;;;57.42;35.05;;;;;;;11.31;100.00;97259.69;4987015;28;20062;-59
2021/10/09 07:27:23;;;;;;;58.15;32.75;;;;;;;10.96;100.00;97263.50;4985574;28;20449;-60
2021/10/09 07:29:52;;;;;;;59.40;32.95;;;;;;;10.79;100.00;97261.41;4982998;28;20434;-59
2021/10/09 07:32:21;;;;;;;57.15;33.00;;;;;;;11.38;100.00;97277.53;4979332;28;20077;-59
2021/10/09 07:34:49;;;;;;;56.50;33.50;;;;;;;10.64;100.00;97268.78;4979383;28;20548;-58
2021/10/09 07:37:18;;;;;;;62.58;33.28;;;;;;;11.06;100.00;97268.84;4982842;28;20074;-58
2021/10/09 07:39:46;;;;;;;62.67;35.08;;;;;;;11.00;100.00;97272.81;4980538;28;20080;-60
2021/10/09 07:42:16;;;;;;;57.45;32.83;;;;;;;11.61;100.00;97274.75;4978932;28;20068;-60
2021/10/09 07:44:44;;;;;;;57.38;34.90;;;;;;;11.99;100.00;97262.72;4986256;28;20157;-59
2021/10/09 07:47:14;;;;;;;58.83;33.35;;;;;;;12.09;100.00;97267.06;4980289;28;20081;-53
2021/10/09 07:49:42;;;;;;;61.88;34.55;;;;;;;11.73;100.00;97273.69;4980540;28;20082;-62
2021/10/09 07:52:11;;;;;;;53.35;32.80;;;;;;;12.20;100.00;97267.94;4975712;28;20077;-62
2021/10/09 07:54:39;;;;;;;58.22;33.35;;;;;;;12.35;100.00;97269.22;4977428;28;20077;-60
2021/10/09 07:57:08;;;;;;;55.30;31.20;;;;;;;11.70;100.00;97276.63;4984618;28;20066;-62
2021/10/09 07:59:38;;;;;;;54.17;31.25;;;;;;;11.79;100.00;97275.81;4983763;28;20097;-62
2021/10/09 08:02:07;;;;;;;60.05;32.72;;;;;;;12.28;100.00;97276.03;4982474;28;20077;-62
2021/10/09 08:04:39;;;;;;;56.90;30.33;;;;;;;11.65;100.00;97284.91;4986068;28;20092;-62
2021/10/09 08:07:07;;;;;;;55.25;32.10;;;;;;;11.45;100.00;97288.41;4984781;28;20429;-61
2021/10/09 08:09:36;;;;;;;56.72;30.83;;;;;;;12.16;100.00;97280.59;4984508;28;20082;-62
2021/10/09 08:12:05;;;;;;;56.90;31.58;;;;;;;12.14;100.00;97281.69;4985021;28;20093;-63
2021/10/09 08:14:33;;;;;;;48.97;28.60;;;;;;;11.79;100.00;97290.84;4981483;28;20081;-61
2021/10/09 08:17:03;;;;;;;43.85;27.77;;;;;;;11.32;100.00;97286.00;4983545;28;20462;-62
2021/10/09 08:19:32;;;;;;;50.88;29.20;;;;;;;12.09;100.00;97285.56;4976520;28;20109;-60
2021/10/09 08:22:03;;;;;;;46.25;27.67;;;;;;;12.48;100.00;97287.50;4983566;28;20124;-62
2021/10/09 08:24:35;;;;;;;50.83;29.52;;;;;;;12.31;100.00;97287.16;4985386;28;20077;-62
2021/10/09 08:27:18;;;;;;;49.88;29.13;;;;;;;12.50;100.00;97291.69;4985960;28;20065;-62
2021/10/09 08:35:32;;;;;;;45.15;26.45;;;;;;;12.92;100.00;97280.88;4983763;28;21168;-61
2021/10/09 08:40:47;;;;;;;45.40;27.50;;;;;;;13.87;100.00;97280.06;4983097;28;20473;-63
2021/10/09 08:43:15;;;;;;;39.38;24.48;;;;;;;13.53;100.00;97280.56;4985331;28;20065;-61
2021/10/09 08:45:45;;;;;;;41.97;26.23;;;;;;;13.28;100.00;97292.59;4980809;28;20073;-61
2021/10/09 08:48:17;;;;;;;35.15;21.52;;;;;;;13.63;100.00;97282.38;4979625;28;20070;-63
2021/10/09 08:50:46;;;;;;;45.42;25.95;;;;;;;13.66;100.00;97284.69;4983232;28;20069;-61
2021/10/09 08:53:15;;;;;;;35.20;24.70;;;;;;;13.52;100.00;97286.00;4984222;28;20089;-62
2021/10/09 08:55:46;;;;;;;36.00;23.25;;;;;;;13.06;100.00;97292.84;4984509;28;20090;-62
2021/10/09 08:58:31;;;;;;;38.50;23.00;;;;;;;13.47;100.00;97297.03;4980023;28;20062;-62
2021/10/09 09:01:10;;;;;;;41.58;24.55;;;;;;;13.69;100.00;97285.25;4976863;28;20449;-62
2021/10/09 09:04:14;;;;;;;40.33;24.73;;;;;;;13.48;100.00;97301.34;4982779;28;20062;-62
2021/10/09 09:07:04;;;;;;;37.72;24.23;;;;;;;13.92;100.00;97293.69;4971698;28;20113;-59
2021/10/09 09:26:21;;;;;;;41.35;26.25;;;;;;;14.50;100.00;97282.03;4977601;28;20078;-60
2021/10/09 09:31:54;;;;;;;45.33;28.08;;;;;;;14.43;100.00;97275.59;4975337;28;20081;-58
2021/10/09 09:37:12;;;;;;;36.65;23.90;;;;;;;14.38;100.00;97276.06;4978224;28;20059;-61
2021/10/09 09:39:42;;;;;;;38.90;24.90;;;;;;;14.45;100.00;97261.22;4979542;28;20062;-62
2021/10/09 09:42:11;;;;;;;43.38;23.13;;;;;;;14.00;100.00;97272.63;4981577;28;20117;-59
2021/10/09 09:44:54;;;;;;;36.67;23.75;;;;;;;13.76;100.00;97275.78;4981821;28;20073;-61
2021/10/09 09:47:34;;;;;;;37.90;24.23;;;;;;;14.80;100.00;97272.88;4983747;28;20070;-59
2021/10/09 09:50:04;;;;;;;40.20;24.00;;;;;;;15.06;100.00;97270.28;4978240;28;20085;-61
2021/10/09 09:52:37;;;;;;;38.65;24.67;;;;;;;14.70;100.00;97272.13;4984712;28;20073;-63
2021/10/09 09:55:07;;;;;;;40.78;24.00;;;;;;;15.40;100.00;97264.25;4988469;28;20066;-62
2021/10/09 09:57:37;;;;;;;37.22;22.50;;;;;;;14.70;100.00;97258.84;4984448;28;20073;-62
2021/10/09 10:00:07;;;;;;;36.78;22.60;;;;;;;14.74;100.00;97257.56;4983459;28;20077;-59
2021/10/09 10:02:39;;;;;;;;;;;;;;;14.77;100.00;97249.28;4986524;28;20077;-57
2021/10/09 10:05:08;;;;;;;34.13;20.88;;;;;;;15.68;100.00;97258.81;4984176;28;19964;-61
2021/10/09 10:07:39;;;;;;;38.15;21.38;;;;;;;15.79;100.00;97248.75;4988353;28;20073;-62
2021/10/09 10:10:09;;;;;;;37.72;21.60;;;;;;;15.41;100.00;97242.81;4983962;28;20081;-62
2021/10/09 10:12:39;;;;;;;33.85;21.60;;;;;;;16.29;97.78;97242.66;4984511;28;20693;-61
2021/10/09 10:15:09;;;;;;;35.20;21.67;;;;;;;16.18;99.61;97237.63;4987188;28;20066;-59
2021/10/09 10:17:40;;;;;;;35.85;21.15;;;;;;;16.73;92.77;97241.63;4982857;28;20070;-62
2021/10/09 10:20:10;;;;;;;27.25;17.50;;;;;;;16.31;87.85;97238.03;4978429;28;20082;-61
2021/10/09 10:23:02;;;;;;;32.42;19.67;;;;;;;16.32;92.16;97241.50;4989270;28;20567;-63
2021/10/09 10:25:33;;;;;;;34.80;17.75;;;;;;;16.15;85.77;97240.63;4982377;28;20319;-63
2021/10/09 10:28:03;;;;;;;30.13;18.17;;;;;;;16.16;89.19;97236.13;4982983;28;20124;-62
2021/10/09 10:30:34;;;;;;;30.38;17.52;;;;;;;15.78;93.25;97238.28;4982194;28;20065;-60
2021/10/09 10:33:40;;;;;;;31.48;18.65;;;;;;;16.22;87.02;97238.97;4978423;28;20077;-58
2021/10/09 10:36:11;;;;;;;31.00;17.90;;;;;;;16.46;83.46;97240.06;4984945;28;20457;-61
2021/10/09 10:38:56;;;;;;;27.13;17.90;;;;;;;16.32;85.21;97242.34;4984870;28;20070;-58
2021/10/09 10:41:43;;;;;;;25.77;18.08;;;;;;;16.65;82.49;97254.91;4979564;28;20078;-61
2021/10/09 10:44:45;;;;;;;26.58;15.85;;;;;;;15.95;90.89;97244.50;4983588;28;20089;-59
2021/10/09 10:48:01;;;;;;;27.17;16.73;;;;;;;15.74;87.73;97252.88;4981934;28;20086;-60
2021/10/09 10:51:12;;;;;;;27.20;16.15;;;;;;;16.43;82.65;97243.88;4986524;28;20088;-60
2021/10/09 10:54:21;;;;;;;24.52;15.13;;;;;;;16.72;81.33;97239.94;4982855;28;20062;-60
2021/10/09 10:57:15;;;;;;;25.08;15.65;;;;;;;17.34;80.44;97243.00;4980527;28;20077;-58
2021/10/09 10:59:46;;;;;;;26.33;15.88;;;;;;;17.23;79.00;97241.50;4980579;28;20539;-58
2021/10/09 11:02:16;;;;;;;24.85;15.73;;;;;;;16.99;76.54;97237.00;4985119;28;20084;-58
2021/10/09 11:04:46;;;;;;;21.60;13.95;;;;;;;16.49;76.80;97248.56;4987295;28;20449;-59
2021/10/09 11:07:15;;;;;;;28.20;13.77;;;;;;;16.71;74.83;97233.78;4984310;28;20077;-58
2021/10/09 11:09:45;;;;;;;22.13;14.05;;;;;;;17.06;71.48;97231.84;4980408;28;20498;-60
2021/10/09 11:12:21;;;;;;;29.40;14.52;;;;;;;16.53;79.32;97236.56;4983358;28;20528;-60
2021/10/09 11:14:50;;;;;;;25.33;13.82;;;;;;;16.53;76.06;97231.25;4980740;28;20067;-59
2021/10/09 11:17:19;;;;;;;28.40;13.75;;;;;;;16.83;78.62;97229.00;4978120;28;20042;-58
2021/10/09 11:19:49;;;;;;;24.83;14.15;;;;;;;17.42;74.17;97224.34;4981292;28;20088;-57
2021/10/09 11:22:18;;;;;;;19.42;13.30;;;;;;;17.06;75.69;97227.34;4979078;28;20494;-56
2021/10/09 11:24:50;;;;;;;23.92;14.38;;;;;;;17.32;70.36;97229.84;4995611;28;20085;-57
2021/10/09 11:27:20;;;;;;;18.42;12.98;;;;;;;17.75;68.05;97216.25;4979642;28;20063;-60
2021/10/09 11:30:02;;;;;;;22.70;13.73;;;;;;;17.58;67.78;97217.28;4979076;28;20070;-59
2021/10/09 11:32:32;;;;;;;25.65;13.25;;;;;;;18.17;67.92;97218.66;4984460;28;20100;-60
2021/10/09 11:35:01;;;;;;;21.37;12.37;;;;;;;17.58;64.40;97219.97;4983442;28;20085;-60
2021/10/09 11:37:29;;;;;;;21.20;12.23;;;;;;;17.67;63.13;97229.63;4980076;28;20069;-57
2021/10/09 11:40:01;;;;;;;17.77;11.60;;;;;;;17.26;65.40;97224.34;4985025;28;20089;-60
2021/10/09 11:42:32;;;;;;;23.15;13.45;;;;;;;17.44;64.40;97221.47;4982925;28;20065;-59
2021/10/09 11:45:09;;;;;;;20.55;12.30;;;;;;;17.28;63.70;97223.19;4982238;28;20488;-61
2021/10/09 11:53:50;;;;;;;19.90;12.57;;;;;;;17.07;67.91;97222.88;4979403;28;20081;-60
2021/10/09 11:56:20;;;;;;;19.92;13.05;;;;;;;17.48;66.05;97215.66;4979108;28;20547;-60
2021/10/09 11:58:52;;;;;;;19.50;12.43;;;;;;;17.94;64.77;97212.41;4982809;28;20085;-59
2021/10/09 12:01:28;;;;;;;20.80;11.43;;;;;;;17.86;64.03;97217.75;4983976;28;20070;-61
2021/10/09 12:03:58;;;;;;;19.90;11.00;;;;;;;17.90;59.93;97206.59;4980607;28;20075;-60
2021/10/09 12:06:52;;;;;;;20.83;12.30;;;;;;;17.26;63.42;97219.84;4983536;28;20587;-60
2021/10/09 12:09:38;;;;;;;17.73;9.20;;;;;;;17.35;60.05;97202.00;4969904;28;20074;-59
2021/10/09 12:12:31;;;;;;;14.73;10.02;;;;;;;17.64;57.62;97204.13;4979020;28;20413;-61
2021/10/09 12:15:00;;;;;;;13.63;8.32;;;;;;;16.85;55.90;97201.19;4980862;28;20537;-61
2021/10/09 12:17:36;;;;;;;13.27;9.55;;;;;;;17.07;55.98;97205.03;4981499;28;20058;-57
2021/10/09 12:20:07;;;;;;;16.17;8.13;;;;;;;17.08;55.09;97196.03;4980779;28;20078;-57
2021/10/09 12:22:43;;;;;;;11.60;7.20;;;;;;;17.45;54.30;97199.19;4980033;28;20466;-59
2021/10/09 12:25:22;;;;;;;12.98;7.82;;;;;;;17.38;54.26;97195.50;4975010;28;20084;-58
2021/10/09 12:27:56;;;;;;;15.82;9.43;;;;;;;17.15;54.72;97211.38;4985462;28;20070;-58
2021/10/09 12:30:35;;;;;;;14.25;8.60;;;;;;;17.29;54.27;97198.19;4980712;28;20158;-56
2021/10/09 12:33:04;;;;;;;15.30;7.95;;;;;;;17.70;53.05;97194.59;4978114;28;20062;-51
2021/10/09 12:35:34;;;;;;;16.45;7.95;;;;;;;17.38;53.18;97174.16;4986787;28;20066;-52
2021/10/09 12:38:04;;;;;;;13.85;8.50;;;;;;;17.35;53.15;97185.19;4984820;28;20174;-53
2021/10/09 12:40:38;;;;;;;14.75;8.95;;;;;;;17.58;54.80;97186.13;4980303;28;20072;-55
2021/10/09 12:43:10;;;;;;;16.95;9.43;;;;;;;17.84;56.60;97188.59;4983234;28;20066;-55
2021/10/09 12:45:39;;;;;;;15.88;9.60;;;;;;;18.00;56.23;97191.19;4980327;28;20073;-50
2021/10/09 12:48:08;;;;;;;14.02;9.43;;;;;;;17.63;53.43;97182.97;4984196;28;20073;-52
2021/10/09 12:50:39;;;;;;;10.43;6.63;;;;;;;17.22;52.58;97185.69;4981917;28;20077;-56
2021/10/09 12:53:07;;;;;;;13.57;8.65;;;;;;;18.39;52.58;97189.50;4981602;28;21442;-52
2021/10/09 12:55:37;;;;;;;14.38;9.05;;;;;;;18.34;53.66;97182.03;4982536;28;20093;-53
2021/10/09 12:58:08;;;;;;;17.77;9.07;;;;;;;17.83;54.61;97181.59;4983482;28;20074;-52
2021/10/09 13:00:39;;;;;;;18.08;9.15;;;;;;;17.78;55.27;97184.75;4981778;28;20520;-54
2021/10/09 13:03:09;;;;;;;15.70;8.88;;;;;;;18.06;54.28;97189.66;4977667;28;20074;-53
2021/10/09 13:05:38;;;;;;;17.10;9.90;;;;;;;18.47;53.12;97189.44;4981465;28;20058;-55
2021/10/09 13:08:06;;;;;;;24.08;12.00;;;;;;;18.10;53.46;97182.13;4979883;28;20537;-54